Kelly Lake, Minnesota
Current Conditions -  °F | °C
As of 9:53 PM on Thursday 27 Nov 2014 (Local Time) from KHIB Reporting Station
Broken Clouds Broken Clouds  
Wind Chill:   Ceiling: 11000
Heat Index:   Visibility: 10mi
Dew Point: -6°   Wind: 0mph
Humidity: 64%   Direction: NA
Pressure: 30.21"   Gusts: NA
Location:  47.4158°N, 93.0053°W
Report Text: KHIB 280353Z AUTO 00000KT 10SM BKN110 M16/M21 A3021 RMK AO2 SLP272 T11561211
Loading
Personal Weather Stations






























Interactive Weather Map New forecast layout! Learn more

10-Day Weather Forecast

Advertisements
Track Severe Weather on mobile